Time,TemperatureF,DewpointF,PressureIn,WindDirection,WindDirectionDegrees,WindSpeedMPH,WindSpeedGustMPH,Humidity,HourlyPrecipIn,Conditions,Clouds,dailyrainin,SoftwareType,DateUTC
2013-07-19 00:03:00,81.0,73.5,29.76,NNW,337,1.1,-999.0,78,-99.99,,,0.00,Acu-Link.com,2013-07-19 05:03:00,
2013-07-19 00:18:00,80.8,73.3,29.76,WSW,247,2.2,-999.0,78,-99.99,,,0.00,Acu-Link.com,2013-07-19 05:18:00,
2013-07-19 00:33:00,80.4,73.3,29.76,South,180,1.7,-999.0,79,-99.99,,,0.00,Acu-Link.com,2013-07-19 05:33:00,
2013-07-19 00:48:00,79.7,73.0,29.76,SSW,202,0.0,-999.0,80,-99.99,,,0.00,Acu-Link.com,2013-07-19 05:48:00,
2013-07-19 01:03:00,79.5,73.1,29.76,NE,45,0.0,-999.0,81,-99.99,,,0.00,Acu-Link.com,2013-07-19 06:03:00,
2013-07-19 01:18:00,78.4,72.8,29.76,ENE,67,0.0,-999.0,83,-99.99,,,0.00,Acu-Link.com,2013-07-19 06:18:00,
2013-07-19 01:34:00,78.1,72.5,29.75,ENE,67,0.0,-999.0,83,-99.99,,,0.00,Acu-Link.com,2013-07-19 06:34:00,
2013-07-19 01:49:00,77.9,72.7,29.75,East,90,0.0,-999.0,84,-99.99,,,0.00,Acu-Link.com,2013-07-19 06:49:00,
2013-07-19 02:04:00,77.5,72.3,29.75,East,90,0.0,-999.0,84,-99.99,,,0.00,Acu-Link.com,2013-07-19 07:04:00,
2013-07-19 02:19:00,77.7,72.1,29.74,South,180,0.0,-999.0,83,-99.99,,,0.00,Acu-Link.com,2013-07-19 07:19:00,
2013-07-19 02:34:00,77.7,71.8,29.74,SW,225,0.0,-999.0,82,-99.99,,,0.00,Acu-Link.com,2013-07-19 07:34:00,
2013-07-19 02:49:00,77.4,71.8,29.75,ESE,112,1.1,-999.0,83,-99.99,,,0.00,Acu-Link.com,2013-07-19 07:49:00,
2013-07-19 03:05:00,77.0,71.4,29.74,WNW,292,0.0,-999.0,83,-99.99,,,0.00,Acu-Link.com,2013-07-19 08:05:00,
2013-07-19 03:20:00,77.0,71.4,29.75,NE,45,0.0,-999.0,83,-99.99,,,0.00,Acu-Link.com,2013-07-19 08:20:00,
2013-07-19 03:35:00,76.6,71.4,29.74,ENE,67,0.0,-999.0,84,-99.99,,,0.00,Acu-Link.com,2013-07-19 08:35:00,
2013-07-19 04:05:00,76.1,71.6,29.73,NE,45,0.0,-999.0,86,-99.99,,,0.00,Acu-Link.com,2013-07-19 09:05:00,
2013-07-19 04:20:00,75.6,71.4,29.73,East,90,0.0,-999.0,87,-99.99,,,0.00,Acu-Link.com,2013-07-19 09:20:00,
2013-07-19 04:35:00,75.0,71.2,29.72,East,90,0.0,-999.0,88,-99.99,,,0.00,Acu-Link.com,2013-07-19 09:35:00,
2013-07-19 04:51:00,74.7,71.6,29.72,ESE,112,0.0,-999.0,90,-99.99,,,0.00,Acu-Link.com,2013-07-19 09:51:00,
2013-07-19 05:06:00,74.5,71.0,29.72,ESE,112,0.0,-999.0,89,-99.99,,,0.00,Acu-Link.com,2013-07-19 10:06:00,
2013-07-19 05:21:00,74.5,71.0,29.72,ESE,112,0.0,-999.0,89,-99.99,,,0.00,Acu-Link.com,2013-07-19 10:21:00,
2013-07-19 05:36:00,74.3,71.2,29.71,ESE,112,0.0,-999.0,90,-99.99,,,0.00,Acu-Link.com,2013-07-19 10:36:00,
2013-07-19 05:51:00,73.9,71.4,29.72,ESE,112,0.0,-999.0,92,-99.99,,,0.00,Acu-Link.com,2013-07-19 10:51:00,
2013-07-19 06:06:00,73.8,71.0,29.72,SSW,202,0.0,-999.0,91,-99.99,,,0.00,Acu-Link.com,2013-07-19 11:06:00,
2013-07-19 06:21:00,73.6,71.1,29.72,ESE,112,0.0,-999.0,92,-99.99,,,0.00,Acu-Link.com,2013-07-19 11:21:00,
2013-07-19 06:36:00,73.8,71.6,29.72,South,180,0.0,-999.0,93,-99.99,,,0.00,Acu-Link.com,2013-07-19 11:36:00,
2013-07-19 06:51:00,74.1,71.9,29.72,East,90,0.0,-999.0,93,-99.99,,,0.00,Acu-Link.com,2013-07-19 11:51:00,
2013-07-19 07:07:00,75.6,72.5,29.72,South,180,0.0,-999.0,90,-99.99,,,0.00,Acu-Link.com,2013-07-19 12:07:00,
2013-07-19 07:22:00,76.5,72.0,29.72,SSE,157,2.2,-999.0,86,-99.99,,,0.00,Acu-Link.com,2013-07-19 12:22:00,
2013-07-19 07:37:00,77.7,72.5,29.72,South,180,2.7,-999.0,84,-99.99,,,0.00,Acu-Link.com,2013-07-19 12:37:00,
2013-07-19 07:52:00,79.2,72.9,29.73,SW,225,1.1,-999.0,81,-99.99,,,0.00,Acu-Link.com,2013-07-19 12:52:00,
2013-07-19 08:07:00,80.2,72.7,29.74,WSW,247,2.2,-999.0,78,-99.99,,,0.00,Acu-Link.com,2013-07-19 13:07:00,
2013-07-19 08:22:00,81.0,72.7,29.74,West,270,2.7,-999.0,76,-99.99,,,0.00,Acu-Link.com,2013-07-19 13:22:00,
2013-07-19 08:37:00,81.7,73.0,29.74,SW,225,2.2,-999.0,75,-99.99,,,0.00,Acu-Link.com,2013-07-19 13:37:00,
2013-07-19 08:52:00,82.6,73.0,29.74,SW,225,0.0,-999.0,73,-99.99,,,0.00,Acu-Link.com,2013-07-19 13:52:00,
2013-07-19 09:07:00,83.7,73.3,29.74,NW,315,3.2,-999.0,71,-99.99,,,0.00,Acu-Link.com,2013-07-19 14:07:00,
2013-07-19 09:23:00,84.4,73.1,29.74,West,270,2.7,-999.0,69,-99.99,,,0.00,Acu-Link.com,2013-07-19 14:23:00,
2013-07-19 09:38:00,84.9,73.6,29.75,South,180,1.1,-999.0,69,-99.99,,,0.00,Acu-Link.com,2013-07-19 14:38:00,
2013-07-19 09:53:00,85.6,73.4,29.74,West,270,3.7,-999.0,67,-99.99,,,0.00,Acu-Link.com,2013-07-19 14:53:00,
2013-07-19 10:08:00,86.5,73.3,29.75,West,270,2.7,-999.0,65,-99.99,,,0.00,Acu-Link.com,2013-07-19 15:08:00,
2013-07-19 10:23:00,86.9,72.8,29.74,South,180,2.7,-999.0,63,-99.99,,,0.00,Acu-Link.com,2013-07-19 15:23:00,
2013-07-19 10:44:00,88.5,73.3,29.74,West,270,2.7,-999.0,61,-99.99,,,0.00,Acu-Link.com,2013-07-19 15:44:00,
2013-07-19 10:59:00,89.2,73.5,29.74,SSW,202,3.2,-999.0,60,-99.99,,,0.00,Acu-Link.com,2013-07-19 15:59:00,
2013-07-19 11:14:00,90.0,73.7,29.73,SSE,157,2.2,-999.0,59,-99.99,,,0.00,Acu-Link.com,2013-07-19 16:14:00,
2013-07-19 11:29:00,91.6,73.6,29.74,WSW,247,2.2,-999.0,56,-99.99,,,0.00,Acu-Link.com,2013-07-19 16:29:00,
2013-07-19 11:44:00,91.2,74.3,29.73,West,270,2.2,-999.0,58,-99.99,,,0.00,Acu-Link.com,2013-07-19 16:44:00,
2013-07-19 11:59:00,91.9,74.4,29.72,South,180,2.2,-999.0,57,-99.99,,,0.00,Acu-Link.com,2013-07-19 16:59:00,
2013-07-19 12:14:00,92.3,74.3,29.71,South,180,2.2,-999.0,56,-99.99,,,0.00,Acu-Link.com,2013-07-19 17:14:00,
2013-07-19 12:32:00,93.2,74.6,29.72,WSW,247,2.7,-999.0,55,-99.99,,,0.00,Acu-Link.com,2013-07-19 17:32:00,
2013-07-19 12:47:00,91.8,73.8,29.71,NE,45,2.2,-999.0,56,-99.99,,,0.00,Acu-Link.com,2013-07-19 17:47:00,
2013-07-19 13:02:00,93.7,74.5,29.70,WSW,247,2.2,-999.0,54,-99.99,,,0.00,Acu-Link.com,2013-07-19 18:02:00,
2013-07-19 13:17:00,94.1,75.4,29.69,WSW,247,3.2,-999.0,55,-99.99,,,0.00,Acu-Link.com,2013-07-19 18:17:00,
2013-07-19 13:32:00,92.1,76.7,29.68,South,180,2.2,-999.0,61,-99.99,,,0.00,Acu-Link.com,2013-07-19 18:32:00,
2013-07-19 13:47:00,93.2,74.6,29.68,NNW,337,1.7,-999.0,55,-99.99,,,0.00,Acu-Link.com,2013-07-19 18:47:00,
2013-07-19 14:02:00,96.4,74.1,29.65,South,180,1.7,-999.0,49,-99.99,,,0.00,Acu-Link.com,2013-07-19 19:02:00,
2013-07-19 14:17:00,95.9,74.2,29.65,WSW,247,4.2,-999.0,50,-99.99,,,0.00,Acu-Link.com,2013-07-19 19:17:00,
2013-07-19 14:32:00,96.4,74.1,29.64,West,270,3.2,-999.0,49,-99.99,,,0.00,Acu-Link.com,2013-07-19 19:32:00,
2013-07-19 14:48:00,97.0,73.4,29.63,SW,225,2.7,-999.0,47,-99.99,,,0.00,Acu-Link.com,2013-07-19 19:48:00,
2013-07-19 15:24:00,97.3,74.3,29.61,West,270,2.2,-999.0,48,-99.99,,,0.00,Acu-Link.com,2013-07-19 20:24:00,
2013-07-19 16:06:00,96.3,73.4,29.60,ENE,67,2.7,-999.0,48,-99.99,,,0.00,Acu-Link.com,2013-07-19 21:06:00,
2013-07-19 17:38:00,94.3,72.8,29.60,NNE,22,1.7,-999.0,50,-99.99,,,0.00,Acu-Link.com,2013-07-19 22:38:00,
2013-07-19 18:00:00,92.7,71.9,29.59,West,270,1.1,-999.0,51,-99.99,,,0.00,Acu-Link.com,2013-07-19 23:00:00,
2013-07-19 18:15:00,91.0,72.6,29.60,South,180,1.1,-999.0,55,-99.99,,,0.00,Acu-Link.com,2013-07-19 23:15:00,
2013-07-19 18:30:00,91.8,72.7,29.60,SSE,157,0.0,-999.0,54,-99.99,,,0.00,Acu-Link.com,2013-07-19 23:30:00,
2013-07-19 18:45:00,91.0,73.1,29.60,SSW,202,0.0,-999.0,56,-99.99,,,0.00,Acu-Link.com,2013-07-19 23:45:00,
2013-07-19 19:00:00,89.8,73.0,29.60,South,180,4.2,-999.0,58,-99.99,,,0.00,Acu-Link.com,2013-07-20 00:00:00,
2013-07-19 19:16:00,88.7,73.5,29.60,SE,135,2.2,-999.0,61,-99.99,,,0.00,Acu-Link.com,2013-07-20 00:16:00,
2013-07-19 19:31:00,87.6,73.9,29.60,SW,225,2.2,-999.0,64,-99.99,,,0.00,Acu-Link.com,2013-07-20 00:31:00,
2013-07-19 19:46:00,87.3,74.1,29.60,SSW,202,0.0,-999.0,65,-99.99,,,0.00,Acu-Link.com,2013-07-20 00:46:00,
2013-07-19 20:01:00,86.5,74.2,29.60,SW,225,0.0,-999.0,67,-99.99,,,0.00,Acu-Link.com,2013-07-20 01:01:00,
2013-07-19 20:16:00,85.6,73.4,29.61,West,270,1.7,-999.0,67,-99.99,,,0.00,Acu-Link.com,2013-07-20 01:16:00,
2013-07-19 20:31:00,84.6,73.3,29.60,South,180,0.0,-999.0,69,-99.99,,,0.00,Acu-Link.com,2013-07-20 01:31:00,
2013-07-19 20:47:00,83.8,72.5,29.61,South,180,1.1,-999.0,69,-99.99,,,0.00,Acu-Link.com,2013-07-20 01:47:00,
2013-07-19 21:02:00,82.6,71.8,29.60,SW,225,1.1,-999.0,70,-99.99,,,0.00,Acu-Link.com,2013-07-20 02:02:00,
2013-07-19 21:17:00,82.9,71.2,29.61,NE,45,1.7,-999.0,68,-99.99,,,0.00,Acu-Link.com,2013-07-20 02:17:00,
2013-07-19 21:32:00,82.4,71.6,29.61,SSW,202,0.0,-999.0,70,-99.99,,,0.00,Acu-Link.com,2013-07-20 02:32:00,
2013-07-19 21:47:00,82.0,71.2,29.61,ESE,112,1.1,-999.0,70,-99.99,,,0.00,Acu-Link.com,2013-07-20 02:47:00,
2013-07-19 22:02:00,81.1,70.4,29.62,South,180,0.0,-999.0,70,-99.99,,,0.00,Acu-Link.com,2013-07-20 03:02:00,
2013-07-19 22:17:00,80.8,70.1,29.62,South,180,0.0,-999.0,70,-99.99,,,0.00,Acu-Link.com,2013-07-20 03:17:00,
2013-07-19 22:32:00,79.9,70.0,29.63,ESE,112,0.0,-999.0,72,-99.99,,,0.00,Acu-Link.com,2013-07-20 03:32:00,
2013-07-19 22:47:00,79.5,69.7,29.63,NNE,22,0.0,-999.0,72,-99.99,,,0.00,Acu-Link.com,2013-07-20 03:47:00,
2013-07-19 23:02:00,79.2,70.2,29.62,WSW,247,0.0,-999.0,74,-99.99,,,0.00,Acu-Link.com,2013-07-20 04:02:00,
2013-07-19 23:18:00,79.0,70.0,29.63,NNE,22,1.1,-999.0,74,-99.99,,,0.00,Acu-Link.com,2013-07-20 04:18:00,
2013-07-19 23:33:00,78.6,69.6,29.63,ESE,112,0.0,-999.0,74,-99.99,,,0.00,Acu-Link.com,2013-07-20 04:33:00,
2013-07-19 23:48:00,78.4,70.2,29.63,East,90,0.0,-999.0,76,-99.99,,,0.00,Acu-Link.com,2013-07-20 04:48:00,